Time;durP1;ratioP1;P1;durP2;ratioP2;P2;SDS_P1;SDS_P2;PMS_P1;PMS_P2;Temp;Humidity;BMP_temperature;BMP_pressure;BME280_temperature;BME280_humidity;BME280_pressure;Samples;Min_cycle;Max_cycle;Signal;HPM_P1;HPM_P2
2023/11/29 00:01:57;;;;;;;12.53;8.20;;;-0.40;99.90;;;;;;5013421;28;20469;-63
2023/11/29 00:04:25;;;;;;;12.47;8.40;;;-0.40;99.90;;;;;;5020792;28;20471;-63
2023/11/29 00:06:53;;;;;;;12.10;8.00;;;-0.40;99.90;;;;;;5015058;28;20996;-63
2023/11/29 00:09:22;;;;;;;10.90;7.83;;;-0.30;99.90;;;;;;5014792;28;20475;-63
2023/11/29 00:11:50;;;;;;;13.03;8.40;;;-0.30;99.90;;;;;;5010771;28;20555;-63
2023/11/29 00:14:18;;;;;;;11.17;8.20;;;-0.30;99.90;;;;;;5016458;28;21008;-63
2023/11/29 00:16:46;;;;;;;11.27;7.30;;;-0.30;99.90;;;;;;5016893;28;20498;-63
2023/11/29 00:19:17;;;;;;;10.67;7.77;;;-0.30;99.90;;;;;;5014056;28;20464;-64
2023/11/29 00:21:45;;;;;;;11.43;8.40;;;-0.30;99.90;;;;;;5014474;28;20482;-63
2023/11/29 00:24:14;;;;;;;14.43;8.67;;;-0.20;99.90;;;;;;5015298;28;20475;-63
2023/11/29 00:26:43;;;;;;;13.30;8.80;;;-0.20;99.90;;;;;;5012333;28;20487;-63
2023/11/29 00:29:11;;;;;;;11.43;7.93;;;-0.20;99.90;;;;;;5019192;28;20557;-64
2023/11/29 00:31:40;;;;;;;13.40;9.40;;;-0.10;99.90;;;;;;5021109;28;20967;-62
2023/11/29 00:34:08;;;;;;;12.43;8.47;;;-0.10;99.90;;;;;;5020122;28;20483;-63
2023/11/29 00:36:36;;;;;;;13.90;9.57;;;0.00;99.90;;;;;;5017172;28;20503;-63
2023/11/29 00:39:05;;;;;;;11.40;8.53;;;0.00;99.90;;;;;;5039003;28;20462;-63
2023/11/29 00:41:33;;;;;;;12.00;8.80;;;0.00;99.90;;;;;;5033913;28;20521;-63
2023/11/29 00:44:02;;;;;;;11.40;8.23;;;0.00;99.90;;;;;;5013698;28;20482;-63
2023/11/29 00:46:30;;;;;;;13.83;9.10;;;0.00;99.90;;;;;;5011427;28;20479;-63
2023/11/29 00:48:58;;;;;;;12.20;9.10;;;0.00;99.90;;;;;;5016903;28;20560;-63
2023/11/29 00:51:26;;;;;;;13.50;9.47;;;0.00;99.90;;;;;;5016069;28;20463;-63
2023/11/29 00:53:54;;;;;;;12.70;8.67;;;0.10;99.90;;;;;;5020259;28;20692;-63
2023/11/29 00:56:22;;;;;;;12.77;9.13;;;0.10;99.90;;;;;;5015865;28;20902;-64
2023/11/29 00:58:50;;;;;;;11.47;8.37;;;0.10;99.90;;;;;;5020389;28;20742;-63
2023/11/29 01:01:19;;;;;;;11.57;8.90;;;0.10;99.90;;;;;;5015908;28;20497;-63
2023/11/29 01:03:47;;;;;;;12.10;8.53;;;0.20;99.90;;;;;;5014164;28;20467;-64
2023/11/29 01:06:16;;;;;;;13.40;9.43;;;0.20;99.90;;;;;;5018667;28;21047;-64
2023/11/29 01:08:44;;;;;;;14.00;8.90;;;0.20;99.90;;;;;;5017307;28;20828;-63
2023/11/29 01:11:12;;;;;;;12.93;8.47;;;0.20;99.90;;;;;;5017360;28;20474;-63
2023/11/29 01:13:40;;;;;;;13.57;9.90;;;0.30;99.90;;;;;;5016208;28;20470;-63
2023/11/29 01:16:08;;;;;;;13.83;9.70;;;0.30;99.90;;;;;;5013799;28;20558;-64
2023/11/29 01:18:37;;;;;;;12.80;8.90;;;0.30;99.90;;;;;;5062415;23;21048;-69
2023/11/29 01:21:06;;;;;;;12.33;9.20;;;0.30;99.90;;;;;;5061762;28;20490;-70
2023/11/29 01:23:34;;;;;;;14.27;10.90;;;0.30;99.90;;;;;;5062120;28;20556;-70
2023/11/29 01:26:02;;;;;;;13.20;10.37;;;0.40;99.90;;;;;;5055074;28;20838;-69
2023/11/29 01:28:30;;;;;;;13.40;10.83;;;0.40;99.90;;;;;;5057320;28;20967;-69
2023/11/29 01:30:58;;;;;;;13.37;11.60;;;0.50;99.90;;;;;;5057264;28;20545;-70
2023/11/29 01:33:26;;;;;;;15.50;11.67;;;0.50;99.90;;;;;;5059194;28;20478;-70
2023/11/29 01:35:55;;;;;;;15.60;12.43;;;0.60;99.90;;;;;;5060246;28;20847;-69
2023/11/29 01:38:23;;;;;;;15.10;12.27;;;0.60;99.90;;;;;;5063742;28;20481;-69
2023/11/29 01:40:51;;;;;;;16.13;12.10;;;0.60;99.90;;;;;;5054924;28;20511;-70
2023/11/29 01:43:19;;;;;;;16.13;11.90;;;0.70;99.90;;;;;;5058890;28;20469;-69
2023/11/29 01:45:47;;;;;;;16.17;12.23;;;0.70;99.90;;;;;;5057393;28;20538;-71
2023/11/29 01:48:15;;;;;;;16.43;13.27;;;0.70;99.90;;;;;;5066634;28;20500;-70
2023/11/29 01:50:48;;;;;;;16.97;13.63;;;0.70;99.90;;;;;;5064555;28;20478;-69
2023/11/29 01:53:20;;;;;;;18.80;14.70;;;0.80;99.90;;;;;;5062153;28;20473;-69
2023/11/29 01:55:50;;;;;;;16.23;12.50;;;0.80;99.90;;;;;;5065755;28;20485;-70
2023/11/29 01:58:18;;;;;;;16.70;13.43;;;0.80;99.90;;;;;;5055606;28;20872;-69
2023/11/29 02:00:46;;;;;;;15.60;12.73;;;0.80;99.90;;;;;;5059787;28;20504;-69
2023/11/29 02:03:15;;;;;;;16.20;14.30;;;0.80;99.90;;;;;;5064809;28;20502;-70
2023/11/29 02:05:43;;;;;;;19.23;14.73;;;0.80;99.90;;;;;;5054286;28;20535;-69
2023/11/29 02:08:12;;;;;;;18.17;14.87;;;0.90;99.90;;;;;;5061014;28;20493;-70
2023/11/29 02:10:42;;;;;;;19.60;15.57;;;0.90;99.90;;;;;;5067744;28;20480;-69
2023/11/29 02:13:10;;;;;;;18.40;15.23;;;0.90;99.90;;;;;;5051927;28;20470;-69
2023/11/29 02:15:38;;;;;;;19.53;15.23;;;0.90;99.90;;;;;;5052271;28;20497;-67
2023/11/29 02:18:06;;;;;;;19.10;15.63;;;0.90;99.90;;;;;;5056995;28;20585;-68
2023/11/29 02:20:35;;;;;;;20.17;15.70;;;0.90;99.90;;;;;;5065558;28;20548;-68
2023/11/29 02:23:08;;;;;;;16.63;14.63;;;0.90;99.90;;;;;;5061417;28;20523;-68
2023/11/29 02:25:38;;;;;;;23.07;16.00;;;1.00;99.90;;;;;;5060967;28;20489;-67
2023/11/29 02:28:06;;;;;;;21.37;16.37;;;1.00;99.90;;;;;;5065532;28;20895;-69
2023/11/29 02:30:34;;;;;;;20.37;16.77;;;1.00;99.90;;;;;;5060885;28;20919;-69
2023/11/29 02:33:02;;;;;;;20.80;17.00;;;1.00;99.90;;;;;;5060036;28;20494;-69
2023/11/29 02:35:30;;;;;;;20.37;16.90;;;1.00;99.90;;;;;;5064014;28;20481;-70
2023/11/29 02:37:58;;;;;;;23.43;18.20;;;1.00;99.90;;;;;;5061997;28;20489;-70
2023/11/29 02:40:26;;;;;;;21.73;17.43;;;1.00;99.90;;;;;;5057130;28;21749;-70
2023/11/29 02:42:56;;;;;;;22.50;16.90;;;1.00;99.90;;;;;;5054777;28;20499;-70
2023/11/29 02:45:23;;;;;;;21.23;16.73;;;1.00;99.90;;;;;;5060284;28;20519;-69
2023/11/29 02:47:51;;;;;;;20.23;16.50;;;1.00;99.90;;;;;;5056269;28;20498;-69
2023/11/29 02:50:20;;;;;;;21.37;16.97;;;1.00;99.90;;;;;;5066485;28;20476;-69
2023/11/29 02:52:48;;;;;;;23.13;17.97;;;1.10;99.90;;;;;;5063777;28;20465;-69
2023/11/29 02:55:16;;;;;;;22.40;17.50;;;1.10;99.90;;;;;;5063363;28;20556;-70
2023/11/29 02:57:44;;;;;;;22.87;16.57;;;1.10;99.90;;;;;;5065811;28;20497;-69
2023/11/29 03:00:14;;;;;;;21.20;16.87;;;1.10;99.90;;;;;;5055615;28;20576;-69
2023/11/29 03:02:42;;;;;;;23.13;18.43;;;1.10;99.90;;;;;;5059256;28;20501;-70
2023/11/29 03:05:10;;;;;;;23.37;17.77;;;1.10;99.90;;;;;;5062792;28;20540;-70
2023/11/29 03:07:38;;;;;;;22.33;18.13;;;1.10;99.90;;;;;;5060010;28;20492;-69
2023/11/29 03:10:07;;;;;;;21.20;16.50;;;1.10;99.90;;;;;;5063002;28;20523;-69
2023/11/29 03:12:35;;;;;;;23.70;18.60;;;1.10;99.90;;;;;;5058266;28;20857;-70
2023/11/29 03:15:04;;;;;;;22.50;16.97;;;1.20;99.90;;;;;;5056454;28;21144;-69
2023/11/29 03:17:33;;;;;;;21.60;18.20;;;1.20;99.90;;;;;;5060897;28;21574;-70
2023/11/29 03:20:03;;;;;;;23.40;17.93;;;1.20;99.90;;;;;;5056219;28;20889;-69
2023/11/29 03:22:31;;;;;;;19.77;16.97;;;1.20;99.90;;;;;;5060629;28;20574;-69
2023/11/29 03:24:59;;;;;;;20.83;18.20;;;1.20;99.90;;;;;;5060548;28;20949;-70
2023/11/29 03:27:27;;;;;;;21.27;16.63;;;1.10;99.90;;;;;;5060086;28;20489;-70
2023/11/29 03:29:56;;;;;;;22.87;17.90;;;1.10;99.90;;;;;;5059541;28;20557;-70
2023/11/29 03:32:26;;;;;;;20.73;17.17;;;1.10;99.90;;;;;;5055108;28;20914;-69
2023/11/29 03:34:55;;;;;;;23.67;17.60;;;1.20;99.90;;;;;;5060205;28;21024;-69
2023/11/29 03:37:23;;;;;;;22.60;17.17;;;1.20;99.90;;;;;;5058039;28;20489;-69
2023/11/29 03:39:51;;;;;;;22.30;17.40;;;1.20;99.90;;;;;;5056463;28;20501;-69
2023/11/29 03:42:19;;;;;;;20.90;17.73;;;1.20;99.90;;;;;;5060024;28;20493;-69
2023/11/29 03:44:47;;;;;;;20.90;16.20;;;1.20;99.90;;;;;;5064940;28;20492;-69
2023/11/29 03:47:15;;;;;;;22.40;17.50;;;1.20;99.90;;;;;;5059303;28;20496;-69
2023/11/29 03:49:44;;;;;;;20.60;17.00;;;1.20;99.90;;;;;;5055851;28;20501;-70
2023/11/29 03:52:14;;;;;;;22.40;17.77;;;1.20;99.90;;;;;;5058379;28;20568;-70
2023/11/29 03:54:41;;;;;;;20.97;17.00;;;1.20;99.90;;;;;;5059366;28;20501;-69
2023/11/29 03:57:10;;;;;;;22.53;17.83;;;1.20;99.90;;;;;;5060839;28;20571;-69
2023/11/29 03:59:37;;;;;;;20.60;16.60;;;1.30;99.90;;;;;;5060196;28;20501;-70
2023/11/29 04:02:05;;;;;;;23.10;17.50;;;1.30;99.90;;;;;;5060299;28;20482;-70
2023/11/29 04:04:34;;;;;;;20.83;17.40;;;1.20;99.90;;;;;;5058952;28;20475;-70
2023/11/29 04:07:02;;;;;;;20.00;16.80;;;1.30;99.90;;;;;;5065609;28;20492;-69
2023/11/29 04:09:31;;;;;;;22.10;17.27;;;1.30;99.90;;;;;;5065640;28;20557;-70
2023/11/29 04:12:00;;;;;;;20.17;17.17;;;1.30;99.90;;;;;;5063362;28;20905;-69
2023/11/29 04:14:28;;;;;;;19.33;17.10;;;1.30;99.90;;;;;;5063645;28;20528;-69
2023/11/29 04:16:57;;;;;;;20.43;16.53;;;1.30;99.90;;;;;;5065501;28;21030;-70
2023/11/29 04:19:25;;;;;;;19.30;16.60;;;1.30;99.90;;;;;;5065268;28;20823;-70
2023/11/29 04:21:53;;;;;;;21.37;17.30;;;1.30;99.90;;;;;;5062791;28;20574;-70
2023/11/29 04:24:21;;;;;;;21.27;17.10;;;1.30;99.90;;;;;;5063562;28;20989;-70
2023/11/29 04:26:50;;;;;;;19.40;16.30;;;1.40;99.90;;;;;;5069276;28;20473;-73
2023/11/29 04:29:19;;;;;;;19.93;16.60;;;1.30;99.90;;;;;;5064537;28;20461;-70
2023/11/29 04:31:47;;;;;;;19.83;15.87;;;1.40;99.90;;;;;;5065993;28;20619;-70
2023/11/29 04:34:15;;;;;;;18.90;15.30;;;1.30;99.90;;;;;;5067041;28;20918;-70
2023/11/29 04:36:59;;;;;;;18.73;14.90;;;1.30;99.90;;;;;;5072270;28;20560;-69
2023/11/29 04:39:27;;;;;;;19.07;15.90;;;1.40;99.90;;;;;;5064692;28;20501;-70
2023/11/29 04:41:57;;;;;;;17.90;14.90;;;1.40;99.90;;;;;;5064518;28;21009;-70
2023/11/29 04:44:25;;;;;;;18.17;15.00;;;1.40;99.90;;;;;;5064317;28;21005;-70
2023/11/29 04:46:53;;;;;;;16.77;14.40;;;1.40;99.90;;;;;;5065616;28;20492;-70
2023/11/29 04:49:22;;;;;;;15.87;13.60;;;1.40;99.90;;;;;;5059093;28;21026;-70
2023/11/29 04:51:50;;;;;;;18.20;15.00;;;1.40;99.90;;;;;;5062641;28;20537;-69
2023/11/29 04:54:18;;;;;;;16.20;14.50;;;1.50;99.90;;;;;;5063785;28;20553;-70
2023/11/29 04:56:46;;;;;;;16.20;13.40;;;1.50;99.90;;;;;;5057435;28;20470;-70
2023/11/29 04:59:15;;;;;;;15.77;13.87;;;1.50;99.90;;;;;;5068261;28;20582;-70
2023/11/29 05:01:43;;;;;;;16.37;13.47;;;1.50;99.90;;;;;;5062157;28;20473;-70
2023/11/29 05:04:12;;;;;;;15.50;13.47;;;1.50;99.90;;;;;;5063039;28;20469;-70
2023/11/29 05:06:40;;;;;;;14.43;12.63;;;1.50;99.90;;;;;;5064514;28;20469;-70
2023/11/29 05:09:14;;;;;;;15.10;13.03;;;1.50;99.90;;;;;;5067758;28;20547;-69
2023/11/29 05:11:42;;;;;;;14.50;12.90;;;1.50;99.90;;;;;;5062226;28;20843;-70
2023/11/29 05:14:10;;;;;;;14.37;12.17;;;1.50;99.90;;;;;;5060129;28;20811;-70
2023/11/29 05:16:41;;;;;;;14.07;12.60;;;1.50;99.90;;;;;;5062985;28;20853;-70
2023/11/29 05:19:09;;;;;;;14.53;12.17;;;1.50;99.90;;;;;;5062507;28;20512;-70
2023/11/29 05:21:38;;;;;;;17.90;12.30;;;1.50;99.90;;;;;;5067605;28;20942;-73
2023/11/29 05:24:07;;;;;;;14.60;13.00;;;1.50;99.90;;;;;;5069281;28;20974;-69
2023/11/29 05:26:35;;;;;;;14.63;12.90;;;1.50;99.90;;;;;;5066571;28;20493;-70
2023/11/29 05:29:03;;;;;;;13.27;11.97;;;1.50;99.90;;;;;;5065495;28;20489;-69
2023/11/29 05:31:31;;;;;;;14.10;12.60;;;1.50;99.90;;;;;;5062606;28;20574;-70
2023/11/29 05:34:01;;;;;;;13.57;11.80;;;1.60;99.90;;;;;;5059413;28;20474;-70
2023/11/29 05:36:29;;;;;;;14.73;12.50;;;1.60;99.90;;;;;;5062885;28;20501;-70
2023/11/29 05:38:57;;;;;;;13.73;12.10;;;1.50;99.90;;;;;;5062800;28;20979;-69
2023/11/29 05:41:25;;;;;;;14.20;12.70;;;1.60;99.90;;;;;;5061072;28;20470;-70
2023/11/29 05:43:53;;;;;;;16.27;12.40;;;1.50;99.90;;;;;;5057805;28;20486;-74
2023/11/29 05:46:21;;;;;;;14.03;12.63;;;1.50;99.90;;;;;;5058809;28;20721;-70
2023/11/29 05:48:49;;;;;;;13.20;11.73;;;1.50;99.90;;;;;;5061557;28;20485;-70
2023/11/29 05:51:19;;;;;;;13.67;11.43;;;1.50;99.90;;;;;;5057027;28;20529;-70
2023/11/29 05:53:47;;;;;;;14.30;11.87;;;1.50;99.90;;;;;;5060495;28;20547;-70
2023/11/29 05:56:15;;;;;;;13.33;11.57;;;1.50;99.90;;;;;;5057895;28;20473;-70
2023/11/29 05:58:43;;;;;;;14.30;11.10;;;1.60;99.90;;;;;;5059564;28;20493;-70
2023/11/29 06:01:11;;;;;;;13.17;11.10;;;1.50;99.90;;;;;;5062192;28;20558;-68
2023/11/29 06:03:39;;;;;;;13.70;11.43;;;1.60;99.90;;;;;;5052454;28;20537;-68
2023/11/29 06:06:08;;;;;;;14.83;12.30;;;1.60;99.90;;;;;;5058575;28;21085;-68
2023/11/29 06:08:37;;;;;;;16.00;12.60;;;1.60;99.90;;;;;;5059370;28;20828;-68
2023/11/29 06:11:07;;;;;;;14.80;12.50;;;1.60;99.90;;;;;;5053682;28;20473;-68
2023/11/29 06:13:35;;;;;;;14.80;12.30;;;1.60;99.90;;;;;;5053115;28;20525;-68
2023/11/29 06:16:03;;;;;;;15.40;12.20;;;1.60;99.90;;;;;;5056369;28;20549;-67
2023/11/29 06:18:31;;;;;;;14.23;12.73;;;1.60;99.90;;;;;;5061512;28;20594;-67
2023/11/29 06:21:04;;;;;;;14.73;11.77;;;1.60;99.90;;;;;;5056757;28;20508;-68
2023/11/29 06:23:32;;;;;;;13.50;11.73;;;1.60;99.90;;;;;;5055632;28;20520;-68
2023/11/29 06:26:02;;;;;;;15.37;13.20;;;1.60;99.90;;;;;;5055795;28;20481;-68
2023/11/29 06:28:30;;;;;;;15.00;12.70;;;1.60;99.90;;;;;;5060884;28;20553;-68
2023/11/29 06:30:59;;;;;;;15.67;12.37;;;1.60;99.90;;;;;;5052613;28;20475;-67
2023/11/29 06:33:27;;;;;;;15.53;13.43;;;1.70;99.90;;;;;;5058109;28;20465;-67
2023/11/29 06:35:58;;;;;;;18.53;13.33;;;1.60;99.90;;;;;;5056289;28;20465;-67
2023/11/29 06:38:26;;;;;;;17.40;13.40;;;1.70;99.90;;;;;;5065282;28;20521;-67
2023/11/29 06:40:57;;;;;;;17.80;15.10;;;1.70;99.90;;;;;;5062350;28;20484;-67
2023/11/29 06:43:30;;;;;;;16.40;13.20;;;1.70;99.90;;;;;;5056764;28;20506;-67
2023/11/29 06:45:58;;;;;;;19.00;13.70;;;1.70;99.90;;;;;;5064139;28;20481;-70
2023/11/29 06:48:26;;;;;;;16.70;14.57;;;1.70;99.90;;;;;;5051410;28;20577;-67
2023/11/29 06:50:54;;;;;;;18.83;14.03;;;1.70;99.90;;;;;;5059475;28;20494;-67
2023/11/29 06:53:22;;;;;;;18.00;14.87;;;1.70;99.90;;;;;;5062994;28;20458;-68
2023/11/29 06:55:50;;;;;;;17.00;13.03;;;1.70;99.90;;;;;;5063085;28;21195;-67
2023/11/29 06:58:18;;;;;;;18.50;15.20;;;1.70;99.90;;;;;;5057736;28;20636;-67
2023/11/29 07:00:53;;;;;;;18.27;15.37;;;1.70;99.90;;;;;;5058909;28;20473;-67
2023/11/29 07:03:21;;;;;;;19.67;15.07;;;1.70;99.90;;;;;;5059071;28;21002;-69
2023/11/29 07:05:50;;;;;;;20.70;14.97;;;1.70;99.90;;;;;;5058315;28;20473;-68
2023/11/29 07:08:18;;;;;;;18.47;14.43;;;1.70;99.90;;;;;;5058084;28;20500;-68
2023/11/29 07:10:46;;;;;;;19.53;15.60;;;1.70;99.90;;;;;;5058815;28;20530;-67
2023/11/29 07:13:14;;;;;;;18.40;14.90;;;1.70;99.90;;;;;;5056960;28;20509;-67
2023/11/29 07:15:42;;;;;;;19.33;15.60;;;1.70;99.90;;;;;;5059096;28;20465;-67
2023/11/29 07:18:12;;;;;;;18.23;15.17;;;1.70;99.90;;;;;;5061581;28;20608;-67
2023/11/29 07:20:41;;;;;;;18.57;14.93;;;1.70;99.90;;;;;;5062823;28;20496;-67
2023/11/29 07:23:13;;;;;;;19.23;15.27;;;1.70;99.90;;;;;;5066139;28;20489;-67
2023/11/29 07:25:41;;;;;;;18.43;14.97;;;1.70;99.90;;;;;;5059493;28;20488;-67
2023/11/29 07:28:09;;;;;;;19.40;15.23;;;1.70;99.90;;;;;;5058883;28;21107;-69
2023/11/29 07:30:37;;;;;;;22.73;16.53;;;1.70;99.90;;;;;;5061696;28;20470;-67
2023/11/29 07:33:05;;;;;;;19.07;15.23;;;1.70;99.90;;;;;;5054985;28;20465;-69
2023/11/29 07:35:35;;;;;;;18.37;15.43;;;1.70;99.90;;;;;;5056099;28;20507;-67
2023/11/29 07:38:03;;;;;;;19.50;16.50;;;1.70;99.90;;;;;;5056446;28;20489;-68
2023/11/29 07:40:31;;;;;;;17.90;15.30;;;1.70;99.90;;;;;;5060177;28;20688;-68
2023/11/29 07:42:59;;;;;;;18.53;15.33;;;1.70;99.90;;;;;;5056136;28;20494;-67
2023/11/29 07:45:27;;;;;;;18.30;15.73;;;1.70;99.90;;;;;;5057737;28;20499;-67
2023/11/29 07:47:55;;;;;;;19.90;16.10;;;1.60;99.90;;;;;;5056996;28;21010;-67
2023/11/29 07:50:24;;;;;;;20.30;15.30;;;1.60;99.90;;;;;;5056505;28;21044;-67
2023/11/29 07:52:54;;;;;;;20.70;15.73;;;1.60;99.90;;;;;;5058342;28;20534;-68
2023/11/29 07:55:22;;;;;;;18.60;14.90;;;1.60;99.90;;;;;;5059999;28;21030;-67
2023/11/29 07:57:50;;;;;;;18.67;14.60;;;1.70;99.90;;;;;;5059574;28;21272;-67
2023/11/29 08:00:19;;;;;;;18.47;15.33;;;1.70;99.90;;;;;;5059069;28;20471;-68
2023/11/29 08:02:47;;;;;;;19.03;15.43;;;1.70;99.90;;;;;;5058538;28;20473;-68
2023/11/29 08:05:15;;;;;;;21.17;16.30;;;1.80;99.90;;;;;;5052203;28;20507;-68
2023/11/29 08:07:43;;;;;;;19.40;15.47;;;1.80;99.90;;;;;;5057594;28;20559;-70
2023/11/29 08:10:13;;;;;;;19.70;15.93;;;1.80;99.90;;;;;;5058768;28;20481;-68
2023/11/29 08:12:41;;;;;;;19.57;15.57;;;1.70;99.90;;;;;;5059893;28;20564;-68
2023/11/29 08:15:09;;;;;;;18.40;15.03;;;1.80;99.90;;;;;;5062180;28;20461;-68
2023/11/29 08:17:37;;;;;;;20.57;16.10;;;1.80;99.90;;;;;;5060811;28;21051;-68
2023/11/29 08:20:07;;;;;;;20.97;16.13;;;1.70;99.90;;;;;;5058344;28;20465;-67
2023/11/29 08:22:35;;;;;;;22.17;16.30;;;1.70;99.90;;;;;;5058139;28;20548;-67
2023/11/29 08:25:03;;;;;;;20.97;16.73;;;1.70;99.90;;;;;;5060053;28;20508;-67
2023/11/29 08:27:33;;;;;;;20.10;15.93;;;1.70;99.90;;;;;;5061254;28;20504;-68
2023/11/29 08:30:01;;;;;;;19.97;15.80;;;1.70;99.90;;;;;;5058631;28;20802;-67
2023/11/29 08:32:29;;;;;;;20.40;16.07;;;1.70;99.90;;;;;;5061990;28;20530;-67
2023/11/29 08:34:57;;;;;;;20.20;15.77;;;1.70;99.90;;;;;;5055954;28;20457;-68
2023/11/29 08:37:25;;;;;;;20.57;15.67;;;1.60;99.90;;;;;;5065658;28;20642;-67
2023/11/29 08:39:55;;;;;;;18.20;14.67;;;1.60;99.90;;;;;;5054035;28;21001;-66
2023/11/29 08:42:23;;;;;;;21.87;15.83;;;1.60;99.90;;;;;;5058669;28;20493;-68
2023/11/29 08:44:52;;;;;;;20.10;14.60;;;1.60;99.90;;;;;;5054246;28;20934;-68
2023/11/29 08:47:21;;;;;;;18.37;14.50;;;1.60;99.90;;;;;;5057857;28;20584;-68
2023/11/29 08:49:49;;;;;;;21.17;15.50;;;1.60;99.90;;;;;;5060511;28;20520;-68
2023/11/29 08:52:18;;;;;;;21.23;15.30;;;1.60;99.90;;;;;;5057974;28;20483;-65
2023/11/29 08:54:49;;;;;;;19.53;14.60;;;1.60;99.90;;;;;;5065029;28;21035;-68
2023/11/29 08:57:18;;;;;;;20.57;15.40;;;1.50;99.90;;;;;;5052668;28;20964;-68
2023/11/29 08:59:47;;;;;;;18.40;14.73;;;1.60;99.90;;;;;;5059527;28;20481;-67
2023/11/29 09:02:17;;;;;;;20.70;16.70;;;1.60;99.90;;;;;;5059880;28;20469;-68
2023/11/29 09:04:45;;;;;;;19.20;15.00;;;1.60;99.90;;;;;;5059575;28;20649;-68
2023/11/29 09:07:14;;;;;;;19.23;15.13;;;1.60;99.90;;;;;;5062402;28;20770;-67
2023/11/29 09:09:43;;;;;;;20.33;16.33;;;1.60;99.90;;;;;;5062681;28;20504;-67
2023/11/29 09:12:12;;;;;;;20.70;16.13;;;1.70;99.90;;;;;;5062572;28;20473;-67
2023/11/29 09:14:40;;;;;;;19.57;15.80;;;1.70;99.90;;;;;;5061186;28;20462;-66
2023/11/29 09:17:09;;;;;;;20.03;15.87;;;1.70;99.90;;;;;;5060733;28;20493;-67
2023/11/29 09:19:39;;;;;;;20.20;15.27;;;1.70;99.90;;;;;;5063190;28;20994;-67
2023/11/29 09:22:07;;;;;;;23.30;16.33;;;1.70;99.90;;;;;;5060243;28;20601;-71
2023/11/29 09:24:36;;;;;;;21.30;15.97;;;1.80;99.90;;;;;;5065505;28;20494;-67
2023/11/29 09:27:04;;;;;;;18.57;15.37;;;1.80;99.90;;;;;;5059692;28;20553;-66
2023/11/29 09:29:33;;;;;;;18.83;15.27;;;1.80;99.90;;;;;;5060655;28;20849;-68
2023/11/29 09:32:01;;;;;;;20.37;15.40;;;1.80;99.90;;;;;;5063753;28;20457;-67
2023/11/29 09:34:29;;;;;;;17.90;13.87;;;1.80;99.90;;;;;;5061060;28;21029;-68
2023/11/29 09:37:00;;;;;;;19.30;15.33;;;1.80;99.90;;;;;;5063973;28;20470;-70
2023/11/29 09:39:28;;;;;;;20.27;15.20;;;1.80;99.90;;;;;;5058795;28;20470;-67
2023/11/29 09:41:57;;;;;;;18.33;14.53;;;1.80;99.90;;;;;;5062486;28;21215;-67
2023/11/29 09:44:26;;;;;;;17.83;14.07;;;1.80;99.90;;;;;;5060064;28;20844;-67
2023/11/29 09:46:55;;;;;;;18.67;14.33;;;1.80;99.90;;;;;;5061335;28;20466;-67
2023/11/29 09:49:24;;;;;;;19.43;15.00;;;1.80;99.90;;;;;;5061537;28;20466;-68
2023/11/29 09:51:52;;;;;;;16.90;13.70;;;1.80;99.90;;;;;;5061758;28;20473;-68
2023/11/29 09:54:21;;;;;;;18.70;14.63;;;1.90;99.90;;;;;;5057425;28;20553;-67
2023/11/29 09:56:50;;;;;;;17.87;14.23;;;1.90;99.90;;;;;;5059185;28;20470;-67
2023/11/29 09:59:18;;;;;;;19.30;14.40;;;1.90;99.90;;;;;;5059778;28;20495;-67
2023/11/29 10:01:47;;;;;;;18.43;14.03;;;1.90;99.90;;;;;;5057870;28;20466;-67
2023/11/29 10:04:15;;;;;;;18.00;13.87;;;1.90;99.90;;;;;;5056539;28;20477;-67
2023/11/29 10:06:44;;;;;;;19.13;15.27;;;2.00;99.90;;;;;;5045995;28;20504;-68
2023/11/29 10:09:13;;;;;;;17.73;14.50;;;2.00;99.90;;;;;;5047573;28;20479;-67
2023/11/29 10:11:44;;;;;;;21.50;14.57;;;2.00;99.90;;;;;;5055892;28;20492;-67
2023/11/29 10:14:12;;;;;;;18.83;14.87;;;2.10;99.90;;;;;;5059390;28;20558;-72
2023/11/29 10:16:40;;;;;;;19.20;14.73;;;2.10;99.90;;;;;;5057398;28;20462;-67
2023/11/29 10:19:11;;;;;;;17.87;14.83;;;2.20;99.90;;;;;;5062096;28;20531;-68
2023/11/29 10:21:41;;;;;;;18.80;15.10;;;2.20;99.90;;;;;;5058351;28;20462;-68
2023/11/29 10:24:10;;;;;;;18.17;14.27;;;2.20;99.90;;;;;;5048300;28;20557;-67
2023/11/29 10:26:38;;;;;;;19.20;15.47;;;2.20;99.90;;;;;;5057611;28;21013;-67
2023/11/29 10:29:09;;;;;;;20.43;15.00;;;2.20;99.90;;;;;;5057306;28;20566;-67
2023/11/29 10:31:38;;;;;;;17.10;13.87;;;2.20;99.90;;;;;;5054365;28;20470;-71
2023/11/29 10:34:07;;;;;;;18.97;14.57;;;2.30;99.90;;;;;;5053854;28;20634;-68
2023/11/29 10:36:35;;;;;;;18.20;15.03;;;2.30;99.90;;;;;;5051219;28;20469;-67
2023/11/29 10:39:09;;;;;;;18.23;14.57;;;2.20;99.90;;;;;;5055453;28;20490;-67
2023/11/29 10:41:44;;;;;;;18.63;14.63;;;2.20;99.90;;;;;;5048723;28;20478;-67
2023/11/29 10:44:15;;;;;;;18.83;14.73;;;2.20;99.90;;;;;;5050819;28;20563;-68
2023/11/29 10:46:44;;;;;;;19.23;14.83;;;2.20;99.90;;;;;;5058528;28;20571;-67
2023/11/29 10:49:16;;;;;;;18.97;15.70;;;2.20;99.90;;;;;;5058943;28;20975;-67
2023/11/29 10:51:45;;;;;;;16.33;14.20;;;2.20;99.90;;;;;;5053696;28;20725;-67
2023/11/29 10:54:17;;;;;;;19.57;14.27;;;2.20;99.90;;;;;;5053149;28;20493;-67
2023/11/29 10:57:09;;;;;;;17.70;14.77;;;2.30;99.90;;;;;;5061895;28;20477;-67
2023/11/29 10:59:40;;;;;;;16.27;13.80;;;2.30;99.90;;;;;;5054310;28;20458;-67
2023/11/29 11:02:09;;;;;;;17.87;14.63;;;2.30;99.90;;;;;;5056308;28;21080;-67
2023/11/29 11:04:45;;;;;;;17.80;14.93;;;2.30;99.90;;;;;;5057127;28;20478;-67
2023/11/29 11:07:38;;;;;;;17.33;14.50;;;2.30;99.90;;;;;;5059077;28;20519;-68
2023/11/29 11:10:09;;;;;;;19.13;16.00;;;2.40;99.90;;;;;;5052417;28;20606;-68
2023/11/29 11:12:37;;;;;;;18.60;15.43;;;2.40;99.90;;;;;;5059176;28;20497;-67
2023/11/29 11:15:13;;;;;;;17.97;14.60;;;2.40;99.90;;;;;;5057959;28;20479;-67
2023/11/29 11:17:41;;;;;;;16.77;14.10;;;2.30;99.90;;;;;;5055313;28;21051;-67
2023/11/29 11:20:10;;;;;;;16.10;13.70;;;2.30;99.90;;;;;;5058247;28;20595;-68
2023/11/29 11:22:42;;;;;;;18.90;14.93;;;2.30;99.90;;;;;;5055289;28;20527;-68
2023/11/29 11:25:12;;;;;;;18.80;14.50;;;2.20;99.90;;;;;;5056198;28;20473;-68
2023/11/29 11:27:41;;;;;;;17.73;14.70;;;2.20;99.90;;;;;;5058315;28;20509;-67
2023/11/29 11:30:28;;;;;;;19.40;15.47;;;2.20;99.90;;;;;;5058186;28;20691;-67
2023/11/29 11:32:57;;;;;;;18.63;14.23;;;2.30;99.90;;;;;;5054308;28;20470;-67
2023/11/29 11:35:36;;;;;;;19.23;15.87;;;2.30;99.90;;;;;;5055543;28;20481;-67
2023/11/29 11:38:07;;;;;;;18.00;15.07;;;2.20;99.90;;;;;;5058099;28;20488;-68
2023/11/29 11:40:38;;;;;;;19.47;16.10;;;2.30;99.90;;;;;;5061368;28;20524;-67
2023/11/29 11:43:07;;;;;;;19.50;16.53;;;2.30;99.90;;;;;;5055531;28;20498;-67
2023/11/29 11:45:37;;;;;;;19.33;15.63;;;2.20;99.90;;;;;;5058341;28;20688;-68
2023/11/29 11:48:07;;;;;;;18.13;15.03;;;2.20;99.90;;;;;;5059076;28;20798;-67
2023/11/29 11:50:36;;;;;;;18.87;14.80;;;2.20;99.90;;;;;;5058928;28;21010;-67
2023/11/29 11:53:06;;;;;;;18.93;15.40;;;2.20;99.90;;;;;;5060514;28;20922;-67
2023/11/29 11:55:39;;;;;;;19.47;15.77;;;2.20;99.90;;;;;;5061174;28;20479;-68
2023/11/29 11:58:09;;;;;;;16.43;13.43;;;2.10;99.90;;;;;;5055818;28;21532;-68
2023/11/29 12:00:40;;;;;;;16.80;14.10;;;2.20;99.90;;;;;;5054405;28;20530;-68
2023/11/29 12:03:09;;;;;;;16.50;13.40;;;2.20;99.90;;;;;;5056176;28;20465;-67
2023/11/29 12:05:38;;;;;;;14.43;12.70;;;2.20;99.90;;;;;;5053449;28;20837;-68
2023/11/29 12:08:07;;;;;;;14.77;12.50;;;2.20;99.90;;;;;;5056656;28;20846;-68
2023/11/29 12:10:35;;;;;;;13.27;11.97;;;2.20;99.90;;;;;;5053417;28;20478;-69
2023/11/29 12:13:04;;;;;;;15.50;12.70;;;2.20;99.90;;;;;;5066006;28;20911;-68
2023/11/29 12:15:34;;;;;;;14.03;11.60;;;2.20;99.90;;;;;;5056982;28;20478;-68
2023/11/29 12:18:13;;;;;;;14.07;11.70;;;2.20;99.90;;;;;;5052521;28;20501;-67
2023/11/29 12:20:43;;;;;;;13.60;10.83;;;2.20;99.90;;;;;;5054909;28;20481;-69
2023/11/29 12:23:13;;;;;;;13.07;10.07;;;2.20;99.90;;;;;;5059187;28;20522;-69
2023/11/29 12:25:42;;;;;;;10.97;8.80;;;2.20;99.90;;;;;;5056079;28;20556;-68
2023/11/29 12:28:11;;;;;;;11.90;9.33;;;2.20;99.90;;;;;;5060255;28;20942;-69
2023/11/29 12:30:42;;;;;;;11.23;8.30;;;2.10;99.90;;;;;;5056138;28;20490;-68
2023/11/29 12:33:14;;;;;;;11.20;8.80;;;2.10;99.90;;;;;;5058346;28;20490;-68
2023/11/29 12:35:42;;;;;;;10.30;8.23;;;2.10;99.90;;;;;;5058065;28;20469;-70
2023/11/29 12:38:10;;;;;;;11.10;8.50;;;2.10;99.90;;;;;;5054012;28;20500;-70
2023/11/29 12:40:38;;;;;;;11.70;9.20;;;2.10;99.90;;;;;;5048545;28;20469;-69
2023/11/29 12:43:07;;;;;;;9.93;8.57;;;2.10;99.90;;;;;;5055827;28;21126;-68
2023/11/29 12:45:35;;;;;;;10.30;8.40;;;2.00;99.90;;;;;;5058026;28;20465;-68
2023/11/29 12:48:04;;;;;;;9.97;8.13;;;2.00;99.90;;;;;;5061636;28;20500;-68